Time;durP1;ratioP1;P1;durP2;ratioP2;P2;SDS_P1;SDS_P2;PMS_P1;PMS_P2;Temp;Humidity;BMP_temperature;BMP_pressure;BME280_temperature;BME280_humidity;BME280_pressure;Samples;Min_cycle;Max_cycle;Signal;HPM_P1;HPM_P2
2021/06/21 00:00:09;;;;;;;11.77;6.47;;;;;;;22.95;38.20;100382.66;4397589;32;20089;-89
2021/06/21 00:02:36;;;;;;;14.38;6.37;;;;;;;23.12;38.14;100385.41;4387650;32;20136;-90
2021/06/21 00:05:03;;;;;;;11.45;6.03;;;;;;;23.01;38.20;100379.78;4385962;32;20046;-90
2021/06/21 00:07:29;;;;;;;12.88;6.35;;;;;;;22.95;38.36;100376.94;4381923;32;20429;-89
2021/06/21 00:09:55;;;;;;;14.27;6.62;;;;;;;22.90;38.48;100374.09;4382911;32;20452;-88
2021/06/21 00:12:21;;;;;;;13.77;6.43;;;;;;;22.89;38.61;100366.81;4384461;32;20043;-91
2021/06/21 00:14:47;;;;;;;14.35;6.43;;;;;;;22.89;38.73;100361.09;4385951;32;20092;-90
2021/06/21 00:17:15;;;;;;;13.62;6.35;;;;;;;22.81;38.92;100360.88;4383500;32;20011;-89
2021/06/21 00:19:41;;;;;;;16.10;7.68;;;;;;;22.78;39.21;100349.66;4381773;32;20096;-88
2021/06/21 00:22:07;;;;;;;11.35;6.70;;;;;;;22.74;39.13;100355.69;4382451;32;20075;-88
2021/06/21 00:24:33;;;;;;;18.58;7.47;;;;;;;22.68;39.31;100351.31;4383868;32;20502;-89
2021/06/21 00:26:59;;;;;;;15.43;7.87;;;;;;;22.58;39.58;100347.22;4385335;32;20063;-90
2021/06/21 00:29:25;;;;;;;19.20;8.35;;;;;;;22.36;39.91;100347.31;4383961;32;20070;-90
2021/06/21 00:31:50;;;;;;;18.62;8.30;;;;;;;22.38;39.90;100344.69;4383280;32;20109;-89
2021/06/21 00:34:16;;;;;;;17.40;8.07;;;;;;;22.26;40.14;100343.97;4371149;32;20035;-88
2021/06/21 00:36:41;;;;;;;19.02;9.40;;;;;;;22.16;40.46;100333.34;4389843;32;20074;-90
2021/06/21 00:39:08;;;;;;;15.35;8.27;;;;;;;21.96;40.76;100331.59;4396846;32;20458;-89
2021/06/21 00:41:35;;;;;;;15.35;8.55;;;;;;;21.99;40.97;100333.41;4369828;32;20046;-89
2021/06/21 00:44:01;;;;;;;19.40;9.73;;;;;;;21.84;41.34;100332.19;4384508;32;20355;-86
2021/06/21 00:46:27;;;;;;;19.55;8.95;;;;;;;21.66;41.73;100322.03;4384161;32;20418;-88
2021/06/21 00:48:53;;;;;;;20.05;8.82;;;;;;;21.51;42.05;100321.56;4384048;32;20038;-88
2021/06/21 00:51:19;;;;;;;19.12;8.57;;;;;;;21.49;42.02;100321.31;4385737;32;20463;-88
2021/06/21 00:53:46;;;;;;;18.98;9.38;;;;;;;21.39;42.51;100317.94;4382719;32;20031;-89
2021/06/21 00:56:13;;;;;;;15.02;9.40;;;;;;;21.38;42.46;100316.38;4387240;32;20042;-88
2021/06/21 00:58:39;;;;;;;16.50;8.10;;;;;;;21.50;42.31;100314.25;4384366;32;20039;-87
2021/06/21 01:01:06;;;;;;;16.52;9.05;;;;;;;21.52;42.43;100317.41;4381726;32;20031;-89
2021/06/21 01:03:33;;;;;;;18.20;9.18;;;;;;;21.37;42.53;100314.03;4400608;32;20073;-88
2021/06/21 01:05:59;;;;;;;15.95;8.65;;;;;;;21.31;42.80;100310.41;4402168;32;20418;-88
2021/06/21 01:08:24;;;;;;;14.65;8.20;;;;;;;21.27;42.93;100316.38;4398641;32;20066;-87
2021/06/21 01:10:52;;;;;;;19.70;8.73;;;;;;;21.29;42.99;100321.59;4392345;32;20214;-88
2021/06/21 01:13:51;;;;;;;16.60;9.23;;;;;;;21.41;42.90;100315.34;4396076;32;20039;-87
2021/06/21 01:16:30;;;;;;;18.85;8.95;;;;;;;21.35;43.02;100310.91;4394433;32;20030;-88
2021/06/21 01:19:11;;;;;;;17.37;8.55;;;;;;;21.29;42.98;100316.66;4397816;32;20749;-87
2021/06/21 01:25:13;;;;;;;21.87;9.30;;;;;;;21.40;43.32;100313.78;4431923;31;682660;-74
2021/06/21 01:27:50;;;;;;;18.37;9.95;;;;;;;21.40;43.32;100313.78;4447291;32;20092;-74
2021/06/21 01:30:20;;;;;;;15.98;8.55;;;;;;;20.95;44.07;100300.81;4442674;32;20776;-75
2021/06/21 01:35:41;;;;;;;18.20;9.23;;;;;;;21.43;43.40;100307.00;4415258;31;1372311;-75
2021/06/21 01:38:12;;;;;;;18.92;9.20;;;;;;;21.43;43.40;100307.00;4447666;32;20104;-76
2021/06/21 01:40:43;;;;;;;23.12;10.07;;;;;;;20.94;44.07;100313.56;4448039;32;20041;-74
2021/06/21 01:43:13;;;;;;;20.30;11.00;;;;;;;20.91;44.31;100314.56;4449374;32;20118;-76
2021/06/21 01:45:40;;;;;;;25.33;12.63;;;;;;;20.74;44.80;100313.03;4449655;32;20347;-76
2021/06/21 01:48:07;;;;;;;24.77;12.02;;;;;;;20.64;44.94;100315.34;4447153;32;20115;-75
2021/06/21 01:50:34;;;;;;;21.37;11.23;;;;;;;20.67;44.96;100317.16;4448565;32;20054;-75
2021/06/21 01:53:09;;;;;;;21.83;11.75;;;;;;;20.47;45.43;100316.62;4448467;32;20036;-75
2021/06/21 01:55:37;;;;;;;22.65;11.70;;;;;;;20.63;45.20;100315.84;4446630;32;20068;-74
2021/06/21 01:58:06;;;;;;;22.27;10.90;;;;;;;20.53;45.59;100314.56;4445849;32;20040;-71
2021/06/21 02:00:33;;;;;;;21.17;11.20;;;;;;;20.41;45.70;100313.75;4447337;32;20049;-73
2021/06/21 02:03:01;;;;;;;26.42;11.82;;;;;;;20.51;45.53;100309.34;4450706;32;20038;-74
2021/06/21 02:05:31;;;;;;;21.10;11.07;;;;;;;20.59;45.51;100313.25;4450974;32;20104;-72
2021/06/21 02:07:57;;;;;;;24.70;11.55;;;;;;;20.53;45.68;100306.75;4448301;32;20067;-73
2021/06/21 02:10:25;;;;;;;22.35;11.90;;;;;;;20.50;45.72;100309.88;4447875;32;20100;-71
2021/06/21 02:12:51;;;;;;;19.80;11.50;;;;;;;20.52;45.86;100307.28;4447434;32;20041;-72
2021/06/21 02:15:17;;;;;;;20.02;11.18;;;;;;;20.42;46.16;100315.31;4451983;32;20112;-72
2021/06/21 02:17:44;;;;;;;24.02;11.88;;;;;;;20.27;46.22;100320.47;4449418;32;20457;-72
2021/06/21 02:20:11;;;;;;;25.42;11.77;;;;;;;20.43;46.16;100316.09;4449246;32;20403;-72
2021/06/21 02:22:37;;;;;;;28.05;11.70;;;;;;;20.45;46.17;100325.72;4448975;32;20113;-75
2021/06/21 02:25:06;;;;;;;22.35;12.02;;;;;;;20.27;46.48;100329.03;4450023;32;20045;-73
2021/06/21 02:27:33;;;;;;;25.52;12.48;;;;;;;20.38;46.36;100326.22;4449043;32;20145;-74
2021/06/21 02:30:00;;;;;;;25.52;11.98;;;;;;;20.30;46.52;100345.16;4447748;32;20427;-74
2021/06/21 02:32:26;;;;;;;28.65;12.02;;;;;;;20.29;46.51;100346.47;4448380;32;20029;-73
2021/06/21 02:34:53;;;;;;;23.20;11.85;;;;;;;20.24;46.58;100349.28;4448931;32;20089;-73
2021/06/21 02:37:19;;;;;;;21.12;11.23;;;;;;;20.28;46.53;100358.41;4450143;32;20111;-75
2021/06/21 02:39:45;;;;;;;22.05;11.25;;;;;;;20.27;46.46;100354.75;4446154;32;20485;-72
2021/06/21 02:42:12;;;;;;;23.70;12.30;;;;;;;20.36;46.33;100357.38;4445533;32;20163;-73
2021/06/21 02:44:38;;;;;;;24.50;11.45;;;;;;;20.47;46.29;100359.50;4433871;32;20052;-73
2021/06/21 02:47:04;;;;;;;21.00;11.02;;;;;;;20.37;46.49;100363.88;4440460;32;20417;-74
2021/06/21 02:49:31;;;;;;;20.17;11.55;;;;;;;20.47;46.30;100360.28;4444458;32;20182;-75
2021/06/21 02:57:26;;;;;;;28.98;12.20;;;;;;;20.90;45.43;100366.59;4428245;31;670606;-74
2021/06/21 02:59:53;;;;;;;26.02;11.20;;;;;;;20.90;45.43;100366.59;4432820;32;20045;-72
2021/06/21 03:02:20;;;;;;;22.90;11.23;;;;;;;20.37;46.40;100364.66;4416630;32;20081;-72
2021/06/21 03:04:47;;;;;;;24.05;11.45;;;;;;;20.24;46.52;100366.41;4417596;32;20053;-73
2021/06/21 03:07:16;;;;;;;24.95;12.07;;;;;;;20.33;46.26;100369.06;4420715;32;20058;-74
2021/06/21 03:09:45;;;;;;;24.73;11.23;;;;;;;20.22;46.39;100371.88;4416474;32;20041;-73
2021/06/21 03:12:12;;;;;;;22.92;11.57;;;;;;;20.19;46.38;100362.25;4414909;32;20086;-73
2021/06/21 03:14:46;;;;;;;21.12;10.85;;;;;;;20.19;46.50;100365.09;4420990;32;20076;-73
2021/06/21 03:17:14;;;;;;;21.05;9.98;;;;;;;20.21;46.33;100359.66;4416206;32;20089;-73
2021/06/21 03:19:42;;;;;;;25.02;10.75;;;;;;;20.04;46.41;100369.44;4413439;32;20105;-75
2021/06/21 03:22:09;;;;;;;27.67;10.98;;;;;;;20.06;46.60;100375.44;4417421;32;20073;-72
2021/06/21 03:24:35;;;;;;;22.20;10.45;;;;;;;19.83;46.89;100370.91;4416367;32;20091;-76
2021/06/21 03:27:00;;;;;;;22.15;10.35;;;;;;;19.83;46.71;100379.47;4417712;32;20077;-74
2021/06/21 03:29:27;;;;;;;18.30;9.43;;;;;;;19.74;46.91;100377.59;4416263;32;20080;-75
2021/06/21 03:31:54;;;;;;;24.45;9.77;;;;;;;19.76;47.01;100378.66;4413453;32;20065;-73
2021/06/21 03:34:23;;;;;;;18.27;9.68;;;;;;;19.82;46.86;100386.47;4415608;32;20106;-75
2021/06/21 03:36:50;;;;;;;20.48;9.40;;;;;;;19.87;46.69;100388.56;4417926;32;20104;-73
2021/06/21 03:39:16;;;;;;;18.70;9.40;;;;;;;19.71;46.99;100395.75;4418698;32;20030;-73
2021/06/21 03:41:42;;;;;;;19.60;9.50;;;;;;;19.61;47.09;100388.69;4414517;32;20372;-74
2021/06/21 03:44:07;;;;;;;18.98;9.77;;;;;;;19.61;47.06;100388.69;4416808;32;20579;-73
2021/06/21 03:46:33;;;;;;;20.45;10.18;;;;;;;19.57;47.00;100383.22;4417067;32;20181;-72
2021/06/21 03:48:59;;;;;;;23.67;11.20;;;;;;;19.64;46.95;100393.37;4418233;32;20111;-76
2021/06/21 03:51:25;;;;;;;19.60;9.98;;;;;;;19.55;47.10;100388.63;4416787;32;20129;-75
2021/06/21 03:53:51;;;;;;;22.58;9.63;;;;;;;19.54;47.21;100394.84;4417398;32;20105;-76
2021/06/21 03:56:18;;;;;;;20.42;9.20;;;;;;;19.51;47.10;100408.06;4419201;32;20110;-73
2021/06/21 03:58:45;;;;;;;21.08;9.75;;;;;;;19.64;47.11;100413.37;4417125;32;20056;-73
2021/06/21 04:01:12;;;;;;;18.30;9.82;;;;;;;19.59;47.16;100414.88;4415165;32;20058;-73
2021/06/21 04:03:38;;;;;;;18.12;9.77;;;;;;;19.66;47.04;100416.47;4418327;32;20062;-74
2021/06/21 04:06:04;;;;;;;24.25;10.43;;;;;;;19.62;47.11;100411.03;4417264;32;20034;-75
2021/06/21 04:08:30;;;;;;;20.20;9.70;;;;;;;19.64;47.04;100428.41;4406507;32;20089;-73
2021/06/21 04:10:56;;;;;;;18.73;9.43;;;;;;;19.58;47.08;100427.56;4403985;32;20394;-75
2021/06/21 04:13:21;;;;;;;18.95;9.18;;;;;;;19.69;46.99;100424.81;4408060;32;20536;-74
2021/06/21 04:15:47;;;;;;;19.15;9.48;;;;;;;19.71;46.95;100445.09;4408979;32;20107;-75
2021/06/21 04:18:17;;;;;;;17.00;8.50;;;;;;;19.91;46.43;100440.53;4410337;32;20041;-75
2021/06/21 04:20:43;;;;;;;16.42;8.85;;;;;;;20.33;45.66;100444.16;4403054;32;20089;-74
2021/06/21 04:23:10;;;;;;;14.13;8.38;;;;;;;20.45;45.30;100442.91;4404565;32;20030;-74
2021/06/21 04:25:36;;;;;;;19.08;8.73;;;;;;;20.53;44.86;100444.00;4407433;32;20077;-75
2021/06/21 04:28:04;;;;;;;18.62;8.70;;;;;;;20.61;44.60;100441.38;4408678;32;20112;-73
2021/06/21 04:30:30;;;;;;;19.62;8.82;;;;;;;20.95;44.00;100449.56;4405139;32;20034;-73
2021/06/21 04:32:55;;;;;;;20.90;9.23;;;;;;;20.96;43.78;100444.66;4406386;32;20046;-73
2021/06/21 04:35:23;;;;;;;18.85;8.48;;;;;;;20.99;43.34;100452.19;4404400;32;20038;-74
2021/06/21 04:37:49;;;;;;;18.70;8.70;;;;;;;21.36;42.69;100449.91;4405045;32;20082;-73
2021/06/21 04:40:21;;;;;;;20.95;8.52;;;;;;;21.10;43.02;100441.53;4401896;32;20057;-75
2021/06/21 04:42:48;;;;;;;16.20;7.70;;;;;;;21.53;42.38;100442.06;4407250;32;20481;-74
2021/06/21 04:45:14;;;;;;;17.05;8.43;;;;;;;21.42;42.15;100439.97;4405564;32;20026;-75
2021/06/21 04:47:40;;;;;;;15.52;8.70;;;;;;;21.52;42.11;100435.56;4405947;32;20128;-74
2021/06/21 04:50:08;;;;;;;18.25;9.23;;;;;;;21.42;42.16;100437.13;4404923;32;20487;-74
2021/06/21 04:52:37;;;;;;;13.18;8.02;;;;;;;21.42;42.29;100442.09;4402409;32;20034;-73
2021/06/21 04:55:05;;;;;;;18.95;8.18;;;;;;;21.18;42.89;100447.53;4406547;32;20060;-75
2021/06/21 04:57:33;;;;;;;14.32;7.97;;;;;;;21.17;42.95;100452.47;4408216;32;20157;-74
2021/06/21 05:00:01;;;;;;;15.88;7.85;;;;;;;21.23;42.54;100443.91;4405202;32;20441;-74
2021/06/21 05:02:27;;;;;;;15.02;7.65;;;;;;;21.43;42.12;100443.63;4406661;32;20053;-74
2021/06/21 05:04:52;;;;;;;11.32;7.03;;;;;;;21.45;42.28;100441.81;4405038;32;20026;-73
2021/06/21 05:07:18;;;;;;;15.15;7.28;;;;;;;21.64;41.95;100453.53;4405887;32;20418;-73
2021/06/21 05:09:44;;;;;;;17.65;8.18;;;;;;;21.67;41.81;100458.22;4405816;32;20753;-73
2021/06/21 05:12:10;;;;;;;17.92;7.32;;;;;;;21.54;42.01;100461.59;4403619;32;20150;-75
2021/06/21 05:14:37;;;;;;;18.25;7.57;;;;;;;21.96;41.12;100477.72;4406564;32;20046;-75
2021/06/21 05:17:07;;;;;;;15.32;7.37;;;;;;;21.69;41.44;100472.78;4407064;32;20056;-73
2021/06/21 05:19:34;;;;;;;13.52;6.95;;;;;;;21.86;41.31;100481.37;4401991;32;20103;-74
2021/06/21 05:21:59;;;;;;;11.63;6.87;;;;;;;21.95;41.10;100489.72;4402044;32;20070;-73
2021/06/21 05:24:26;;;;;;;23.42;7.20;;;;;;;21.91;41.09;100492.84;4405743;32;20039;-75
2021/06/21 05:26:52;;;;;;;13.88;7.22;;;;;;;22.00;40.72;100489.69;4402548;32;20093;-73
2021/06/21 05:29:18;;;;;;;14.60;7.28;;;;;;;22.28;40.63;100492.50;4402851;32;20124;-75
2021/06/21 05:31:44;;;;;;;12.57;7.45;;;;;;;22.06;40.83;100484.72;4402641;32;20119;-75
2021/06/21 05:34:09;;;;;;;14.82;7.53;;;;;;;22.42;40.12;100492.19;4405425;32;20521;-74
2021/06/21 05:36:36;;;;;;;13.88;6.03;;;;;;;22.32;40.26;100490.16;4409049;32;20461;-75
2021/06/21 05:39:03;;;;;;;14.20;6.57;;;;;;;22.11;40.42;100489.69;4406459;32;20073;-75
2021/06/21 05:41:29;;;;;;;13.00;7.45;;;;;;;22.42;40.35;100492.19;4402258;32;20042;-73
2021/06/21 05:43:54;;;;;;;12.55;6.43;;;;;;;21.88;40.97;100501.72;4406831;32;20475;-74
2021/06/21 05:46:20;;;;;;;13.57;6.60;;;;;;;22.36;40.30;100511.50;4405114;32;20830;-75
2021/06/21 05:48:46;;;;;;;17.45;7.05;;;;;;;22.52;40.06;100502.09;4404812;32;20078;-71
2021/06/21 05:51:11;;;;;;;11.82;6.53;;;;;;;22.53;39.94;100497.16;4406244;32;20129;-74
2021/06/21 05:53:38;;;;;;;13.13;6.18;;;;;;;22.68;39.57;100507.00;4401790;32;20082;-73
2021/06/21 05:56:03;;;;;;;16.20;7.55;;;;;;;22.98;39.05;100507.13;4404076;32;20128;-71
2021/06/21 05:58:29;;;;;;;14.55;6.45;;;;;;;23.10;38.77;100515.13;4400426;32;20325;-72
2021/06/21 06:00:55;;;;;;;11.55;5.90;;;;;;;23.36;38.31;100515.53;4402798;32;20076;-74
2021/06/21 06:03:21;;;;;;;10.63;5.53;;;;;;;23.10;38.69;100514.38;4406391;32;20089;-71
2021/06/21 06:05:47;;;;;;;10.25;5.68;;;;;;;22.98;38.69;100512.88;4405035;32;21060;-73
2021/06/21 06:08:13;;;;;;;14.10;5.47;;;;;;;23.25;38.40;100517.66;4402925;32;20079;-73
2021/06/21 06:10:38;;;;;;;15.18;5.37;;;;;;;23.23;38.18;100514.53;4399166;32;20082;-74
2021/06/21 06:13:05;;;;;;;14.25;5.43;;;;;;;23.16;38.34;100520.81;4400066;32;20374;-74
2021/06/21 06:15:30;;;;;;;12.40;5.20;;;;;;;23.52;37.62;100528.19;4402315;32;20085;-72
2021/06/21 06:17:56;;;;;;;10.20;5.55;;;;;;;23.67;37.21;100539.31;4405105;32;20121;-71
2021/06/21 06:20:22;;;;;;;15.32;6.75;;;;;;;23.73;37.17;100540.84;4405576;32;20114;-72
2021/06/21 06:22:48;;;;;;;13.07;5.45;;;;;;;23.98;36.93;100533.84;4401550;32;20143;-72
2021/06/21 06:25:15;;;;;;;11.25;5.50;;;;;;;23.98;36.52;100539.59;4401793;32;20038;-74
2021/06/21 06:27:43;;;;;;;12.20;5.80;;;;;;;24.14;36.35;100541.53;4402657;32;20090;-74
2021/06/21 06:30:11;;;;;;;14.65;5.20;;;;;;;24.36;36.18;100540.53;4402680;32;20069;-76
2021/06/21 06:32:39;;;;;;;9.88;5.35;;;;;;;24.39;35.65;100537.34;4402714;32;20091;-72
2021/06/21 06:35:06;;;;;;;15.35;6.50;;;;;;;24.66;35.33;100536.28;4398530;32;20372;-71
2021/06/21 06:37:33;;;;;;;11.77;5.97;;;;;;;24.48;35.61;100531.25;4395650;32;20069;-73
2021/06/21 06:39:58;;;;;;;14.87;6.10;;;;;;;24.58;35.42;100532.41;4392666;32;20076;-74
2021/06/21 06:42:24;;;;;;;15.05;5.60;;;;;;;24.12;36.03;100526.16;4391076;32;20050;-71
2021/06/21 06:44:50;;;;;;;11.35;5.62;;;;;;;23.96;36.67;100532.84;4394920;32;20116;-74
2021/06/21 06:47:16;;;;;;;11.10;5.60;;;;;;;24.64;35.41;100533.16;4400371;32;20509;-74
2021/06/21 06:49:42;;;;;;;16.62;5.47;;;;;;;24.32;35.65;100531.41;4394125;32;21155;-74
2021/06/21 06:52:09;;;;;;;11.73;5.43;;;;;;;24.55;35.45;100533.53;4397695;32;20126;-74
2021/06/21 06:54:46;;;;;;;16.70;6.43;;;;;;;24.55;35.42;100533.53;4393794;32;20057;-77
2021/06/21 06:57:12;;;;;;;13.88;6.07;;;;;;;24.36;35.68;100537.66;4392639;32;20076;-74
2021/06/21 06:59:39;;;;;;;8.57;4.95;;;;;;;24.37;35.84;100544.97;4393576;32;20101;-74
2021/06/21 07:02:09;;;;;;;13.10;6.22;;;;;;;24.31;35.98;100536.41;4392551;32;20082;-73
2021/06/21 07:04:36;;;;;;;11.32;5.43;;;;;;;24.00;36.79;100536.97;4391387;32;20058;-72
2021/06/21 07:07:03;;;;;;;11.55;5.65;;;;;;;24.12;36.34;100549.94;4387631;32;20089;-73
2021/06/21 07:09:30;;;;;;;14.43;6.18;;;;;;;24.27;36.25;100563.91;4390793;32;20162;-72
2021/06/21 07:11:57;;;;;;;15.75;5.90;;;;;;;24.46;35.84;100559.00;4385403;32;20074;-75
2021/06/21 07:14:24;;;;;;;11.30;5.57;;;;;;;24.64;35.81;100558.28;4394967;32;20042;-72
2021/06/21 07:16:50;;;;;;;11.05;5.35;;;;;;;24.62;35.79;100572.41;4394656;32;20076;-72
2021/06/21 07:19:18;;;;;;;13.00;5.07;;;;;;;23.87;36.97;100561.88;4391154;32;20070;-72
2021/06/21 07:21:45;;;;;;;13.77;5.37;;;;;;;24.65;35.80;100565.59;4391844;32;20116;-72
2021/06/21 07:24:11;;;;;;;12.07;4.82;;;;;;;24.53;36.05;100564.12;4391455;32;20108;-75
2021/06/21 07:26:38;;;;;;;14.77;5.03;;;;;;;24.57;36.14;100559.66;4388578;32;20126;-73
2021/06/21 07:29:05;;;;;;;11.40;5.53;;;;;;;24.87;35.80;100562.47;4390733;32;20193;-73
2021/06/21 07:31:32;;;;;;;11.20;4.90;;;;;;;25.44;34.97;100566.97;4388952;32;21005;-77
2021/06/21 07:33:59;;;;;;;12.02;4.95;;;;;;;25.50;34.71;100570.53;4390155;32;20113;-72
2021/06/21 07:36:25;;;;;;;16.30;5.43;;;;;;;26.04;33.91;100568.91;4391456;32;20026;-73
2021/06/21 07:38:50;;;;;;;14.75;5.60;;;;;;;25.99;33.77;100561.12;4389537;32;21148;-76
2021/06/21 07:41:16;;;;;;;8.25;4.53;;;;;;;26.39;33.25;100574.31;4390975;32;20752;-76
2021/06/21 07:43:43;;;;;;;11.93;5.00;;;;;;;26.66;32.62;100564.38;4389240;32;20103;-76
2021/06/21 07:46:09;;;;;;;9.68;3.90;;;;;;;27.06;32.29;100580.34;4394909;32;20090;-75
2021/06/21 07:48:37;;;;;;;9.82;4.22;;;;;;;27.41;31.68;100581.97;4392592;32;20066;-74
2021/06/21 07:51:05;;;;;;;9.93;4.47;;;;;;;27.40;31.53;100577.53;4395210;32;20106;-74
2021/06/21 07:53:31;;;;;;;10.38;4.03;;;;;;;27.60;31.26;100573.13;4395280;32;20106;-74
2021/06/21 07:55:57;;;;;;;12.13;4.30;;;;;;;27.76;30.98;100590.06;4393982;32;20093;-73
2021/06/21 07:58:22;;;;;;;24.20;9.02;;;;;;;27.75;30.84;100588.53;4394356;32;20540;-74
2021/06/21 08:00:48;;;;;;;7.03;4.12;;;;;;;27.89;30.55;100575.59;4394872;32;20126;-73
2021/06/21 08:03:14;;;;;;;8.80;3.97;;;;;;;27.98;30.56;100580.13;4395650;32;20057;-74
2021/06/21 08:05:43;;;;;;;5.90;3.87;;;;;;;28.01;30.16;100576.88;4394622;32;20481;-72
2021/06/21 08:08:09;;;;;;;10.77;3.90;;;;;;;28.06;30.45;100581.75;4395457;32;20097;-72
2021/06/21 08:10:35;;;;;;;7.05;3.58;;;;;;;28.11;30.43;100580.06;4392062;32;20074;-71
2021/06/21 08:13:01;;;;;;;7.40;3.47;;;;;;;27.86;30.39;100576.75;4393422;32;20049;-74
2021/06/21 08:15:27;;;;;;;11.90;3.78;;;;;;;27.90;30.21;100570.59;4393206;32;20070;-74
2021/06/21 08:17:53;;;;;;;9.32;3.30;;;;;;;28.05;30.33;100576.53;4394704;32;20065;-75
2021/06/21 08:20:19;;;;;;;8.95;3.58;;;;;;;27.78;30.66;100567.16;4391857;32;20089;-74
2021/06/21 08:22:46;;;;;;;8.73;3.42;;;;;;;28.07;30.37;100562.28;4395715;32;20054;-73
2021/06/21 08:25:12;;;;;;;6.47;3.67;;;;;;;28.42;30.13;100568.16;4393487;32;20108;-75
2021/06/21 08:27:39;;;;;;;4.18;2.80;;;;;;;28.44;29.58;100568.38;4393178;32;20106;-78
2021/06/21 08:30:07;;;;;;;6.45;3.83;;;;;;;28.72;29.23;100564.75;4389780;32;20762;-74
2021/06/21 08:32:33;;;;;;;6.25;2.35;;;;;;;28.72;29.04;100574.19;4396106;32;20085;-76
2021/06/21 08:34:58;;;;;;;9.20;2.60;;;;;;;28.97;28.39;100578.19;4394653;32;21144;-77
2021/06/21 08:37:25;;;;;;;5.37;2.72;;;;;;;29.10;28.39;100588.16;4396227;32;20189;-73
2021/06/21 08:39:52;;;;;;;4.22;2.40;;;;;;;29.72;27.41;100579.91;4392803;32;20123;-73
2021/06/21 08:42:19;;;;;;;7.55;3.20;;;;;;;30.04;26.69;100592.56;4391057;32;20599;-74
2021/06/21 08:44:46;;;;;;;7.25;2.72;;;;;;;30.82;25.84;100581.94;4395787;32;20107;-74
2021/06/21 08:47:17;;;;;;;5.15;2.60;;;;;;;30.62;25.82;100594.56;4392633;32;20091;-72
2021/06/21 08:49:45;;;;;;;4.60;2.50;;;;;;;30.06;26.41;100595.66;4395564;32;20054;-75
2021/06/21 08:52:13;;;;;;;4.12;2.45;;;;;;;30.20;26.39;100590.47;4392941;32;20151;-73
2021/06/21 08:54:39;;;;;;;9.05;2.60;;;;;;;30.07;26.41;100603.00;4395073;32;20414;-75
2021/06/21 08:57:06;;;;;;;4.68;2.62;;;;;;;30.35;25.74;100596.28;4392593;32;20120;-74
2021/06/21 08:59:32;;;;;;;4.70;3.15;;;;;;;30.34;26.13;100604.22;4394901;32;20069;-74
2021/06/21 09:01:58;;;;;;;4.95;2.58;;;;;;;30.01;26.58;100608.25;4393347;32;20185;-75
2021/06/21 09:04:25;;;;;;;11.48;2.85;;;;;;;29.87;26.48;100598.16;4395633;32;20084;-74
2021/06/21 09:06:53;;;;;;;4.87;2.87;;;;;;;29.89;26.62;100612.06;4395911;32;20141;-72
2021/06/21 09:09:19;;;;;;;5.82;2.80;;;;;;;29.39;27.38;100615.75;4393822;32;20150;-73
2021/06/21 09:17:10;;;;;;;5.93;3.00;;;;;;;29.82;26.63;100609.94;4426832;31;674459;-76
2021/06/21 09:19:48;;;;;;;5.63;3.10;;;;;;;29.82;26.63;100609.94;4431787;32;20738;-75
2021/06/21 09:25:23;;;;;;;7.65;3.55;;;;;;;30.14;26.70;100616.78;4422694;31;667662;-74
2021/06/21 09:28:05;;;;;;;5.95;3.28;;;;;;;30.17;26.40;100611.94;4432065;32;20105;-72
2021/06/21 09:30:47;;;;;;;6.00;3.50;;;;;;;29.92;26.89;100619.63;4429548;32;20058;-75
2021/06/21 09:33:29;;;;;;;5.95;3.28;;;;;;;30.06;26.70;100623.94;4428444;32;20089;-75
2021/06/21 09:35:54;;;;;;;7.25;2.72;;;;;;;30.40;26.45;100625.12;4422498;32;20190;-72
2021/06/21 09:38:20;;;;;;;6.00;3.03;;;;;;;30.27;26.47;100627.44;4421579;32;20045;-74
2021/06/21 09:40:50;;;;;;;5.70;3.00;;;;;;;30.69;25.63;100623.59;4419951;32;20057;-72
2021/06/21 09:46:14;;;;;;;6.07;3.10;;;;;;;31.15;25.34;100629.34;4391355;32;1368768;-74
2021/06/21 09:54:14;;;;;;;5.80;2.65;;;;;;;31.54;24.80;100646.87;4414520;31;686140;-73
2021/06/21 09:56:56;;;;;;;9.52;3.47;;;;;;;31.54;24.80;100646.87;4446012;32;20110;-78
2021/06/21 09:59:25;;;;;;;6.90;3.70;;;;;;;31.60;24.87;100640.84;4444435;32;20073;-73
2021/06/21 10:04:41;;;;;;;8.83;3.30;;;;;;;31.80;24.40;100649.28;4392909;32;1526278;-74
2021/06/21 10:07:27;;;;;;;4.50;2.50;;;;;;;31.80;24.40;100649.28;4420789;32;20430;-74
2021/06/21 10:09:54;;;;;;;6.03;3.40;;;;;;;31.58;24.73;100653.09;4431970;32;20123;-74
2021/06/21 10:12:21;;;;;;;7.72;3.25;;;;;;;31.51;24.43;100656.03;4422646;32;20183;-75
2021/06/21 10:14:48;;;;;;;6.97;2.67;;;;;;;31.35;24.37;100658.19;4432684;32;20077;-75
2021/06/21 10:17:13;;;;;;;4.00;2.42;;;;;;;31.84;23.70;100658.41;4435224;32;20080;-74
2021/06/21 10:19:39;;;;;;;10.75;3.03;;;;;;;31.78;23.88;100662.91;4434061;32;20081;-75
2021/06/21 10:22:07;;;;;;;8.98;2.42;;;;;;;31.75;23.83;100664.81;4429535;32;20491;-75
2021/06/21 10:24:33;;;;;;;5.72;3.45;;;;;;;31.76;24.08;100666.41;4428438;32;20132;-75
2021/06/21 10:27:01;;;;;;;6.30;3.15;;;;;;;31.42;24.13;100662.44;4431772;32;20049;-74
2021/06/21 10:29:28;;;;;;;5.90;3.10;;;;;;;31.35;24.41;100674.87;4432630;32;20077;-75
2021/06/21 10:31:54;;;;;;;11.85;3.67;;;;;;;30.40;25.57;100673.75;4430190;32;20096;-74
2021/06/21 10:34:21;;;;;;;5.65;3.05;;;;;;;30.82;25.12;100672.03;4431748;32;20073;-76
2021/06/21 10:36:51;;;;;;;7.90;3.37;;;;;;;30.78;25.25;100674.56;4433968;32;20436;-76
2021/06/21 10:39:19;;;;;;;11.90;3.28;;;;;;;31.35;24.73;100680.72;4429457;32;20075;-74
2021/06/21 10:44:44;;;;;;;6.05;3.05;;;;;;;31.55;24.37;100671.72;4431669;31;711528;-77
2021/06/21 11:01:15;;;;;;;9.30;3.30;;;;;;;29.90;26.61;100691.97;4415098;31;671660;-74
2021/06/21 11:03:43;;;;;;;7.70;3.08;;;;;;;29.90;26.61;100691.97;4433533;32;20108;-75
2021/06/21 11:09:08;;;;;;;10.80;4.40;;;;;;;28.50;29.35;100689.88;4429843;31;718861;-75
2021/06/21 11:17:10;;;;;;;8.07;3.10;;;;;;;28.22;29.41;100681.81;4425464;31;671059;-75
2021/06/21 11:19:41;;;;;;;7.30;3.45;;;;;;;27.72;30.23;100682.19;4436162;32;20110;-78
2021/06/21 11:22:08;;;;;;;6.45;3.03;;;;;;;27.69;30.43;100685.41;4431085;32;20450;-77
2021/06/21 11:24:46;;;;;;;7.87;3.20;;;;;;;27.78;30.42;100690.75;4434021;32;20049;-74
2021/06/21 11:27:17;;;;;;;10.15;3.08;;;;;;;27.96;30.27;100690.63;4434081;32;20101;-75
2021/06/21 11:29:50;;;;;;;7.22;3.30;;;;;;;27.99;30.30;100695.28;4435776;32;20065;-74
2021/06/21 11:32:17;;;;;;;7.47;3.90;;;;;;;27.84;30.43;100694.28;4436188;32;20108;-73
2021/06/21 11:51:16;;;;;;;11.07;4.43;;;;;;;27.66;32.49;100715.44;4422609;31;676374;-74
2021/06/21 11:53:45;;;;;;;10.18;4.80;;;;;;;27.66;32.49;100715.44;4433437;32;20079;-74
2021/06/21 11:56:27;;;;;;;11.48;5.18;;;;;;;26.69;34.09;100727.06;4433025;32;20025;-74
2021/06/21 11:58:54;;;;;;;16.83;5.55;;;;;;;26.90;34.13;100734.53;4438257;32;20101;-73
2021/06/21 12:01:24;;;;;;;12.23;5.87;;;;;;;26.23;35.50;100722.50;4427345;32;20054;-73
2021/06/21 12:03:55;;;;;;;14.77;5.70;;;;;;;26.19;35.87;100730.72;4416648;32;20400;-73
2021/06/21 12:06:20;;;;;;;14.95;5.87;;;;;;;26.27;35.62;100733.75;4416799;32;20126;-73
2021/06/21 12:08:46;;;;;;;11.65;5.47;;;;;;;25.80;36.47;100735.47;4414896;32;20049;-74
2021/06/21 12:11:21;;;;;;;11.65;5.30;;;;;;;25.99;36.48;100736.28;4414723;32;20046;-73
2021/06/21 12:13:57;;;;;;;10.50;4.90;;;;;;;26.65;35.75;100743.91;4415669;32;20085;-76
2021/06/21 12:16:24;;;;;;;11.60;5.20;;;;;;;26.14;36.60;100737.34;4414343;32;20081;-75
2021/06/21 12:18:52;;;;;;;7.55;4.32;;;;;;;25.89;36.94;100755.25;4414848;32;20134;-75
2021/06/21 12:27:04;;;;;;;5.55;3.17;;;;;;;25.84;37.19;100756.91;4438318;31;658675;-77
2021/06/21 12:29:32;;;;;;;8.50;3.75;;;;;;;25.84;37.19;100756.91;4454141;32;20045;-77
2021/06/21 12:32:16;;;;;;;9.02;3.53;;;;;;;24.95;38.86;100756.31;4456482;32;20099;-75
2021/06/21 12:34:58;;;;;;;10.30;3.50;;;;;;;25.12;38.34;100765.56;4459416;32;20163;-75
2021/06/21 12:40:05;;;;;;;12.40;3.93;;;;;;;25.32;38.77;100791.06;4398321;32;1378489;-78